DucheSS Of Scandinavia — OUZI2 — position and weather

sailwx.info

Track history (hours):
 
Tides and Currents Weather Stations Pressure Air Temp Water Temp Dewpoint Dewpoint Depression Visibility Wind Speed Wind Dir Waves Ship Positions

DucheSS Of Scandinavia

Operator: DFDS A/S

Last reported at 2018-Feb-19 10:01 UTC. Time now 2018-Feb-19 10:15 UTC.
Position N 58°56' E 011°10'.

Length 134 m; draft 5.4 m.

Type: Passenger vessel. MMSI: 219002929.

Date/timePositionNaut miles runAvg speedWind from/ knotsBaromVisibWave heightAir tempDewpointWater temp
2018-Feb-19 10:01N 58°56' E 011°10'510.0
2018-Feb-19 09:30N 58°58' E 011°02'815.8
2018-Feb-19 09:00N 59°02' E 010°48'815.4
2018-Feb-19 08:30N 59°01' E 010°33'816.0
2018-Feb-19 08:01N 59°01' E 010°17'612.4
2018-Feb-19 07:30N 59°07' E 010°14'0 0.3
2018-Feb-19 07:00N 59°08' E 010°14'1 2.2
2018-Feb-19 06:30N 59°06' E 010°14'0 0.7
2018-Feb-19 06:00N 59°06' E 010°14'0 0.0
2018-Feb-19 05:29N 59°06' E 010°14'0 0.0
2018-Feb-19 04:59N 59°06' E 010°14'0 0.0
2018-Feb-19 04:29N 59°06' E 010°14'0 0.0
2018-Feb-19 04:00N 59°06' E 010°14'0 0.0
2018-Feb-19 03:30N 59°06' E 010°14'0 0.0
2018-Feb-19 03:00N 59°06' E 010°14'0 0.0
2018-Feb-19 02:28N 59°06' E 010°14'0 0.0
2018-Feb-19 01:58N 59°06' E 010°14'0 0.0
2018-Feb-19 01:28N 59°06' E 010°14'0 0.0
2018-Feb-19 00:59N 59°06' E 010°14'0 0.0
2018-Feb-19 00:29N 59°06' E 010°14'0 0.0
2018-Feb-18 23:59N 59°06' E 010°14'0 0.0
2018-Feb-18 23:30N 59°06' E 010°14'0 0.0
2018-Feb-18 23:00N 59°06' E 010°14'0 0.0
2018-Feb-18 22:30N 59°06' E 010°14'0 0.0
2018-Feb-18 21:58N 59°06' E 010°14'0 0.0
2018-Feb-18 21:28N 59°06' E 010°14'0 0.0
2018-Feb-18 20:58N 59°06' E 010°14'0 0.0
2018-Feb-18 20:31N 59°06' E 010°14'1 2.8
2018-Feb-18 20:00N 59°08' E 010°14'4 7.1
2018-Feb-18 19:30N 59°04' E 010°15'714.0
2018-Feb-18 19:00N 59°01' E 010°27'815.8
2018-Feb-18 18:31N 59°01' E 010°42'815.6
2018-Feb-18 18:01N 59°00' E 010°57'714.9
2018-Feb-18 17:31N 58°56' E 011°09'1 1.5
2018-Feb-18 17:00N 58°56' E 011°10'3 6.4
2018-Feb-18 16:31N 58°57' E 011°04'714.0
2018-Feb-18 16:01N 59°01' E 010°53'714.3
2018-Feb-18 15:31N 59°01' E 010°39'816.2
2018-Feb-18 15:01N 59°01' E 010°23'713.2
2018-Feb-18 14:30N 59°05' E 010°14'2 4.3
2018-Feb-18 14:00N 59°08' E 010°14'0 0.0
2018-Feb-18 13:31N 59°08' E 010°14'4 7.3
2018-Feb-18 13:00N 59°04' E 010°15'713.9
2018-Feb-18 12:31N 59°01' E 010°27'815.1
2018-Feb-18 12:01N 59°01' E 010°41'715.0
2018-Feb-18 11:31N 59°00' E 010°56'815.7
2018-Feb-18 11:01N 58°56' E 011°08'1 2.0
2018-Feb-18 10:31N 58°56' E 011°10'0 0.0
2018-Feb-18 10:01N 58°56' E 011°10'5 9.2
2018-Feb-18 09:31N 58°58' E 011°02'815.1
2018-Feb-18 09:01N 59°01' E 010°49'815.5
2018-Feb-18 08:31N 59°01' E 010°34'816.6
2018-Feb-18 08:01N 59°01' E 010°18'612.4
2018-Feb-18 07:30N 59°07' E 010°14'0 0.8
2018-Feb-18 07:01N 59°08' E 010°14'0 1.0
2018-Feb-18 06:30N 59°07' E 010°14'1 1.9
2018-Feb-18 06:00N 59°06' E 010°14'0 0.0
2018-Feb-18 05:30N 59°06' E 010°14'0 0.0
2018-Feb-18 04:58N 59°06' E 010°14'0 0.0
2018-Feb-18 04:28N 59°06' E 010°14'0 0.0
2018-Feb-18 03:58N 59°06' E 010°14'0 0.0
2018-Feb-18 03:23N 59°06' E 010°14'0 0.0
2018-Feb-18 02:59N 59°06' E 010°14'0 0.0
2018-Feb-18 02:29N 59°06' E 010°14'0 0.0
2018-Feb-18 02:00N 59°06' E 010°14'0 0.0
2018-Feb-18 01:30N 59°06' E 010°14'0 0.0
2018-Feb-18 01:00N 59°06' E 010°14'0 0.0
2018-Feb-18 00:30N 59°06' E 010°14'0 0.0
2018-Feb-18 00:01N 59°06' E 010°14'0 0.0
2018-Feb-17 23:31N 59°06' E 010°14'0 0.0
2018-Feb-17 23:01N 59°06' E 010°14'0 0.0
2018-Feb-17 22:31N 59°06' E 010°14'0 0.0
2018-Feb-17 22:00N 59°06' E 010°14'0 0.0
2018-Feb-17 21:30N 59°06' E 010°14'0 0.0
2018-Feb-17 21:01N 59°06' E 010°14'1 2.6
2018-Feb-17 20:30N 59°07' E 010°14'0 0.2
2018-Feb-17 20:01N 59°08' E 010°14'3 6.3
2018-Feb-17 19:31N 59°04' E 010°15'713.5
2018-Feb-17 19:01N 59°01' E 010°26'816.2
2018-Feb-17 18:31N 59°01' E 010°42'815.5
2018-Feb-17 18:01N 59°00' E 010°57'815.2
2018-Feb-17 17:31N 58°56' E 011°08'1 1.8
2018-Feb-17 17:00N 58°56' E 011°10'3 6.2
2018-Feb-17 16:31N 58°57' E 011°04'714.5
2018-Feb-17 16:01N 59°01' E 010°53'815.3
2018-Feb-17 15:31N 59°01' E 010°38'815.5
2018-Feb-17 15:01N 59°01' E 010°23'713.5
2018-Feb-17 14:30N 59°06' E 010°14'2 3.3
2018-Feb-17 14:00N 59°08' E 010°14'0 0.0
2018-Feb-17 13:30N 59°08' E 010°14'4 7.4
2018-Feb-17 13:01N 59°04' E 010°15'713.5
2018-Feb-17 12:31N 59°01' E 010°26'815.5
2018-Feb-17 12:01N 59°01' E 010°41'714.9
2018-Feb-17 11:31N 59°00' E 010°56'815.7
2018-Feb-17 11:01N 58°56' E 011°08'1 1.9
2018-Feb-17 10:31N 58°56' E 011°10'0 0.0
2018-Feb-17 10:01N 58°56' E 011°10'612.4
2018-Feb-17 09:31N 58°59' E 010°60'816.6
2018-Feb-17 09:00N 59°02' E 010°44'817.0
2018-Feb-17 08:31N 59°01' E 010°28'714.9
2018-Feb-17 08:01N 59°04' E 010°15'4 7.8
2018-Feb-17 07:30N 59°08' E 010°14'0 0.0
2018-Feb-17 07:00N 59°08' E 010°14'1 1.6
2018-Feb-17 06:30N 59°07' E 010°14'1 1.3
2018-Feb-17 06:00N 59°06' E 010°14'0 0.0
2018-Feb-17 05:28N 59°06' E 010°14'0 0.0
2018-Feb-17 04:58N 59°06' E 010°14'0 0.0
2018-Feb-17 04:28N 59°06' E 010°14'0 0.0
2018-Feb-17 03:59N 59°06' E 010°14'0 0.0
2018-Feb-17 03:29N 59°06' E 010°14'0 0.0
2018-Feb-17 02:59N 59°06' E 010°14'0 0.0
2018-Feb-17 02:30N 59°06' E 010°14'0 0.0
2018-Feb-17 02:00N 59°06' E 010°14'0 0.0
2018-Feb-17 01:30N 59°06' E 010°14'0 0.0
2018-Feb-17 00:58N 59°06' E 010°14'0 0.0
2018-Feb-17 00:28N 59°06' E 010°14'0 0.0
2018-Feb-16 23:58N 59°06' E 010°14'0 0.0
2018-Feb-16 23:29N 59°06' E 010°14'0 0.0
2018-Feb-16 22:59N 59°06' E 010°14'0 0.0
2018-Feb-16 22:29N 59°06' E 010°14'0 0.0
2018-Feb-16 22:00N 59°06' E 010°14'0 0.0
2018-Feb-16 21:30N 59°06' E 010°14'0 0.0
2018-Feb-16 21:00N 59°06' E 010°14'1 1.6
2018-Feb-16 20:30N 59°07' E 010°14'1 1.3
2018-Feb-16 20:01N 59°08' E 010°14'3 6.3
2018-Feb-16 19:30N 59°04' E 010°15'612.9
2018-Feb-16 19:01N 59°01' E 010°25'815.7
2018-Feb-16 18:31N 59°01' E 010°40'815.8
2018-Feb-16 18:01N 59°00' E 010°56'815.6
2018-Feb-16 17:31N 58°56' E 011°08'1 2.2
2018-Feb-16 17:00N 58°56' E 011°10'3 5.6
2018-Feb-16 16:31N 58°56' E 011°05'714.8
2018-Feb-16 16:01N 59°01' E 010°53'815.1
2018-Feb-16 15:31N 59°01' E 010°38'815.7
2018-Feb-16 15:01N 59°01' E 010°23'713.4
2018-Feb-16 14:30N 59°06' E 010°14'2 4.1
2018-Feb-16 14:01N 59°08' E 010°14'0 0.0
2018-Feb-16 13:30N 59°08' E 010°14'4 7.9
2018-Feb-16 13:01N 59°04' E 010°15'714.1
2018-Feb-16 12:31N 59°01' E 010°27'815.8
2018-Feb-16 12:01N 59°01' E 010°43'815.8
2018-Feb-16 11:31N 58°60' E 010°58'714.4
2018-Feb-16 11:01N 58°56' E 011°09'0 0.8
2018-Feb-16 10:31N 58°56' E 011°10'0 0.0
2018-Feb-16 10:00N 58°56' E 011°10'5 9.9
2018-Feb-16 09:31N 58°58' E 011°02'815.4
2018-Feb-16 09:00N 59°02' E 010°48'815.9
2018-Feb-16 08:30N 59°01' E 010°33'815.8
2018-Feb-16 08:00N 59°01' E 010°18'612.5
2018-Feb-16 07:30N 59°07' E 010°14'0 0.5
2018-Feb-16 07:01N 59°08' E 010°14'1 2.3
2018-Feb-16 06:31N 59°06' E 010°14'0 0.6
2018-Feb-16 06:00N 59°06' E 010°14'0 0.0
2018-Feb-16 05:30N 59°06' E 010°14'0 0.0
2018-Feb-16 05:01N 59°06' E 010°14'0 0.0
2018-Feb-16 04:30N 59°06' E 010°14'0 0.0
2018-Feb-16 04:00N 59°06' E 010°14'0 0.0
2018-Feb-16 03:31N 59°06' E 010°14'0 0.0
2018-Feb-16 03:01N 59°06' E 010°14'0 0.0
2018-Feb-16 02:30N 59°06' E 010°14'0 0.0
2018-Feb-16 02:00N 59°06' E 010°14'0 0.0
2018-Feb-16 01:30N 59°06' E 010°14'0 0.0
2018-Feb-16 01:00N 59°06' E 010°14'0 0.0
2018-Feb-16 00:31N 59°06' E 010°14'0 0.0
2018-Feb-16 00:00N 59°06' E 010°14'0 0.0
2018-Feb-15 23:30N 59°06' E 010°14'0 0.0
2018-Feb-15 23:00N 59°06' E 010°14'0 0.0
2018-Feb-15 22:30N 59°06' E 010°14'0 0.0
2018-Feb-15 22:00N 59°06' E 010°14'0 0.0
2018-Feb-15 21:28N 59°06' E 010°14'0 0.0
2018-Feb-15 21:00N 59°06' E 010°14'1 2.8
2018-Feb-15 20:30N 59°08' E 010°14'0 0.2
2018-Feb-15 20:00N 59°07' E 010°14'611.3
2018-Feb-15 19:31N 59°02' E 010°16'715.0
2018-Feb-15 19:01N 58°59' E 010°29'612.0
2018-Feb-15 18:31N 59°01' E 010°41'815.3
2018-Feb-15 18:01N 59°01' E 010°56'815.8
2018-Feb-15 17:31N 58°56' E 011°08'1 2.4
2018-Feb-15 17:01N 58°56' E 011°10'4 8.6
2018-Feb-15 16:30N 58°58' E 011°02'815.8
2018-Feb-15 16:01N 59°01' E 010°49'815.4
2018-Feb-15 15:30N 58°59' E 010°35'714.6
2018-Feb-15 15:01N 59°00' E 010°20'713.4
2018-Feb-15 14:30N 59°06' E 010°14'1 3.0
2018-Feb-15 14:01N 59°08' E 010°14'0 0.0
2018-Feb-15 13:30N 59°08' E 010°14'510.0
2018-Feb-15 13:01N 59°03' E 010°15'714.4
2018-Feb-15 12:31N 58°59' E 010°28'713.8
2018-Feb-15 12:01N 59°01' E 010°41'815.2
2018-Feb-15 11:31N 59°01' E 010°55'816.3
2018-Feb-15 11:01N 58°56' E 011°08'1 1.9
2018-Feb-15 10:31N 58°56' E 011°10'0 0.1
2018-Feb-15 10:01N 58°56' E 011°10'713.1
2018-Feb-15 09:30N 58°59' E 010°59'815.5
2018-Feb-15 09:01N 59°01' E 010°45'816.2
2018-Feb-15 08:31N 58°59' E 010°30'714.3
2018-Feb-15 08:00N 59°02' E 010°17'611.9
2018-Feb-15 07:30N 59°07' E 010°14'0 0.2
2018-Feb-15 07:00N 59°08' E 010°14'1 2.1
2018-Feb-15 06:30N 59°07' E 010°14'0 0.8
2018-Feb-15 06:00N 59°06' E 010°14'0 0.0
2018-Feb-15 05:30N 59°06' E 010°14'0 0.0
2018-Feb-15 04:58N 59°06' E 010°14'0 0.0
2018-Feb-15 04:28N 59°06' E 010°14'0 0.0
2018-Feb-15 03:58N 59°06' E 010°14'0 0.0
2018-Feb-15 03:29N 59°06' E 010°14'0 0.0
2018-Feb-15 02:59N 59°06' E 010°14'0 0.0
2018-Feb-15 02:29N 59°06' E 010°14'0 0.0
2018-Feb-15 02:00N 59°06' E 010°14'0 0.0
2018-Feb-15 01:30N 59°06' E 010°14'0 0.0
2018-Feb-15 00:57N 59°06' E 010°14'0 0.0
2018-Feb-15 00:28N 59°06' E 010°14'0 0.0
2018-Feb-14 23:58N 59°06' E 010°14'0 0.0
2018-Feb-14 23:28N 59°06' E 010°14'0 0.0
2018-Feb-14 22:59N 59°06' E 010°14'0 0.0
2018-Feb-14 22:29N 59°06' E 010°14'0 0.0
2018-Feb-14 21:59N 59°06' E 010°14'0 0.0
2018-Feb-14 21:30N 59°06' E 010°14'0 0.0
2018-Feb-14 21:00N 59°06' E 010°14'0 0.7
2018-Feb-14 20:30N 59°07' E 010°14'1 2.1
2018-Feb-14 20:00N 59°08' E 010°14'4 8.5
2018-Feb-14 19:30N 59°03' E 010°15'713.5
2018-Feb-14 19:00N 59°01' E 010°27'815.0
2018-Feb-14 18:30N 59°01' E 010°41'815.6
2018-Feb-14 18:00N 59°00' E 010°56'815.1
2018-Feb-14 17:31N 58°56' E 011°08'1 2.1
2018-Feb-14 17:00N 58°56' E 011°10'3 6.5
2018-Feb-14 16:30N 58°57' E 011°04'815.4
2018-Feb-14 16:00N 59°01' E 010°52'815.3
2018-Feb-14 15:30N 59°00' E 010°37'815.6
2018-Feb-14 15:01N 59°01' E 010°22'713.8
2018-Feb-14 14:30N 59°06' E 010°14'1 2.5
2018-Feb-14 14:00N 59°08' E 010°14'0 0.0
2018-Feb-14 13:30N 59°08' E 010°14'4 8.0
2018-Feb-14 13:01N 59°04' E 010°15'713.7
2018-Feb-14 12:31N 59°01' E 010°27'714.8
2018-Feb-14 12:01N 59°01' E 010°41'714.4
2018-Feb-14 11:31N 59°00' E 010°55'815.9
2018-Feb-14 11:01N 58°56' E 011°08'1 2.1
2018-Feb-14 10:31N 58°56' E 011°10'0 0.0
2018-Feb-14 10:01N 58°56' E 011°10'510.5
2018-Feb-14 09:30N 58°59' E 011°01'714.8
2018-Feb-14 09:00N 59°02' E 010°48'815.7
2018-Feb-14 08:30N 59°01' E 010°33'816.4
2018-Feb-14 08:01N 59°01' E 010°17'612.3
2018-Feb-14 07:30N 59°07' E 010°14'0 0.4
2018-Feb-14 07:00N 59°08' E 010°14'1 2.5
2018-Feb-14 06:30N 59°06' E 010°14'0 0.3
2018-Feb-14 05:59N 59°06' E 010°14'0 0.0
2018-Feb-14 05:27N 59°06' E 010°14'0 0.0
2018-Feb-14 05:00N 59°06' E 010°14'0 0.0
2018-Feb-14 04:30N 59°06' E 010°14'0 0.0
2018-Feb-14 03:58N 59°06' E 010°14'0 0.0
2018-Feb-14 03:28N 59°06' E 010°14'0 0.0
2018-Feb-14 02:58N 59°06' E 010°14'0 0.0
2018-Feb-14 02:29N 59°06' E 010°14'0 0.0
2018-Feb-14 01:59N 59°06' E 010°14'0 0.0
2018-Feb-14 01:29N 59°06' E 010°14'0 0.0
2018-Feb-14 01:00N 59°06' E 010°14'0 0.0
2018-Feb-14 00:30N 59°06' E 010°14'0 0.0
2018-Feb-14 00:00N 59°06' E 010°14'0 0.0
2018-Feb-13 23:28N 59°06' E 010°14'0 0.0
2018-Feb-13 22:58N 59°06' E 010°14'0 0.0
2018-Feb-13 22:28N 59°06' E 010°14'0 0.0
2018-Feb-13 21:59N 59°06' E 010°14'0 0.0
2018-Feb-13 21:29N 59°06' E 010°14'0 0.0
2018-Feb-13 20:59N 59°06' E 010°14'1 1.1
2018-Feb-13 20:30N 59°07' E 010°14'1 1.8
2018-Feb-13 20:00N 59°08' E 010°14'3 6.7
2018-Feb-13 19:31N 59°04' E 010°15'713.5
2018-Feb-13 19:01N 59°01' E 010°26'815.6
2018-Feb-13 18:31N 59°01' E 010°41'815.9
2018-Feb-13 18:01N 59°00' E 010°57'815.6
2018-Feb-13 17:30N 58°56' E 011°09'1 1.3
2018-Feb-13 17:01N 58°56' E 011°10'3 5.4
2018-Feb-13 16:31N 58°56' E 011°05'714.6
2018-Feb-13 16:01N 59°01' E 010°54'815.4
2018-Feb-13 15:31N 59°02' E 010°39'816.3
2018-Feb-13 15:00N 59°01' E 010°23'713.4
2018-Feb-13 14:31N 59°06' E 010°14'2 3.7
2018-Feb-13 14:01N 59°08' E 010°14'0 0.0
2018-Feb-13 13:31N 59°08' E 010°14'4 7.9
2018-Feb-13 13:00N 59°04' E 010°15'713.6
2018-Feb-13 12:31N 59°01' E 010°27'815.3
2018-Feb-13 12:01N 59°01' E 010°42'714.8
2018-Feb-13 11:31N 59°00' E 010°56'815.6
2018-Feb-13 11:01N 58°56' E 011°08'1 1.9
2018-Feb-13 10:31N 58°56' E 011°10'0 0.0
2018-Feb-13 10:00N 58°56' E 011°10'510.2
2018-Feb-13 09:30N 58°58' E 011°02'815.7
2018-Feb-13 09:00N 59°02' E 010°48'816.2
2018-Feb-13 08:30N 59°01' E 010°32'815.9
2018-Feb-13 08:00N 59°01' E 010°17'612.4
2018-Feb-13 07:31N 59°07' E 010°14'0 0.4
2018-Feb-13 07:01N 59°08' E 010°14'1 1.8
2018-Feb-13 06:31N 59°07' E 010°14'1 1.0
2018-Feb-13 06:00N 59°06' E 010°14'0 0.0
2018-Feb-13 05:30N 59°06' E 010°14'0 0.0
2018-Feb-13 05:00N 59°06' E 010°14'0 0.0
2018-Feb-13 04:28N 59°06' E 010°14'0 0.0
2018-Feb-13 03:58N 59°06' E 010°14'0 0.0
2018-Feb-13 03:28N 59°06' E 010°14'0 0.0
2018-Feb-13 02:59N 59°06' E 010°14'0 0.0
2018-Feb-13 02:29N 59°06' E 010°14'0 0.0
2018-Feb-13 01:59N 59°06' E 010°14'0 0.0
2018-Feb-13 01:30N 59°06' E 010°14'0 0.0
2018-Feb-13 01:00N 59°06' E 010°14'0 0.0
2018-Feb-13 00:30N 59°06' E 010°14'0 0.0
2018-Feb-12 23:58N 59°06' E 010°14'0 0.0
2018-Feb-12 23:28N 59°06' E 010°14'0 0.0
2018-Feb-12 22:58N 59°06' E 010°14'0 0.0
2018-Feb-12 22:29N 59°06' E 010°14'0 0.0
2018-Feb-12 21:59N 59°06' E 010°14'0 0.0
2018-Feb-12 21:29N 59°06' E 010°14'0 0.0
2018-Feb-12 21:00N 59°06' E 010°14'0 0.0
2018-Feb-12 20:31N 59°06' E 010°14'1 2.9
2018-Feb-12 20:00N 59°08' E 010°14'3 6.8
2018-Feb-12 19:30N 59°04' E 010°15'713.6
2018-Feb-12 19:01N 59°01' E 010°26'816.3
2018-Feb-12 18:31N 59°01' E 010°42'815.9
2018-Feb-12 18:01N 58°60' E 010°57'714.7
2018-Feb-12 17:31N 58°56' E 011°09'1 1.4
2018-Feb-12 17:00N 58°56' E 011°10'2 4.9
2018-Feb-12 16:30N 58°56' E 011°05'815.3
2018-Feb-12 16:00N 59°01' E 010°53'815.8
2018-Feb-12 15:31N 59°01' E 010°38'816.1
2018-Feb-12 15:01N 59°01' E 010°22'713.7
2018-Feb-12 14:31N 59°06' E 010°14'2 3.0
2018-Feb-12 14:00N 59°08' E 010°14'0 0.0
2018-Feb-12 13:30N 59°08' E 010°14'4 7.7
2018-Feb-12 13:01N 59°04' E 010°15'714.3
2018-Feb-12 12:30N 59°01' E 010°28'816.3
2018-Feb-12 12:01N 59°01' E 010°43'816.0
2018-Feb-12 11:30N 58°60' E 010°59'714.1
2018-Feb-12 11:00N 58°56' E 011°10'0 0.1
2018-Feb-12 10:31N 58°56' E 011°10'0 0.0
2018-Feb-12 10:01N 58°56' E 011°10'510.6
2018-Feb-12 09:31N 58°59' E 011°01'816.6
2018-Feb-12 09:01N 59°02' E 010°46'816.5
2018-Feb-12 08:31N 59°01' E 010°30'815.7
2018-Feb-12 08:01N 59°02' E 010°16'610.8
2018-Feb-12 07:30N 59°08' E 010°14'0 0.0
2018-Feb-12 07:01N 59°08' E 010°14'1 2.3
2018-Feb-12 06:30N 59°06' E 010°14'0 0.5
2018-Feb-12 06:00N 59°06' E 010°14'0 0.0
2018-Feb-12 05:30N 59°06' E 010°14'0 0.0
2018-Feb-12 04:58N 59°06' E 010°14'0 0.0
2018-Feb-12 04:28N 59°06' E 010°14'0 0.0
2018-Feb-12 03:58N 59°06' E 010°14'0 0.0
2018-Feb-12 03:29N 59°06' E 010°14'0 0.0
2018-Feb-12 02:59N 59°06' E 010°14'0 0.0
2018-Feb-12 02:29N 59°06' E 010°14'0 0.0
2018-Feb-12 02:00N 59°06' E 010°14'0 0.0
2018-Feb-12 01:30N 59°06' E 010°14'0 0.0
2018-Feb-12 01:00N 59°06' E 010°14'0 0.0
2018-Feb-12 00:28N 59°06' E 010°14'0 0.0
2018-Feb-11 23:58N 59°06' E 010°14'0 0.0
2018-Feb-11 23:28N 59°06' E 010°14'0 0.0
2018-Feb-11 22:59N 59°06' E 010°14'0 0.0
2018-Feb-11 22:30N 59°06' E 010°14'0 0.0
2018-Feb-11 22:00N 59°06' E 010°14'0 0.0
2018-Feb-11 21:31N 59°06' E 010°14'0 0.0
2018-Feb-11 21:00N 59°06' E 010°14'0 0.1
2018-Feb-11 20:30N 59°06' E 010°14'1 2.8
2018-Feb-11 20:00N 59°08' E 010°14'3 6.5
2018-Feb-11 19:30N 59°04' E 010°15'612.7
2018-Feb-11 19:00N 59°01' E 010°25'815.3
2018-Feb-11 18:30N 59°01' E 010°40'815.9
2018-Feb-11 18:00N 59°00' E 010°55'816.5
2018-Feb-11 17:31N 58°56' E 011°08'1 1.9
2018-Feb-11 17:00N 58°56' E 011°10'3 5.5
2018-Feb-11 16:30N 58°56' E 011°05'815.5
2018-Feb-11 16:00N 59°01' E 010°53'816.3
2018-Feb-11 15:30N 59°02' E 010°37'816.0
2018-Feb-11 15:00N 59°01' E 010°22'713.1
2018-Feb-11 14:30N 59°06' E 010°14'1 2.9
2018-Feb-11 14:01N 59°08' E 010°14'0 0.0
2018-Feb-11 13:30N 59°08' E 010°14'4 8.3
2018-Feb-11 13:01N 59°04' E 010°15'714.8
2018-Feb-11 12:30N 59°01' E 010°28'715.1
2018-Feb-11 12:00N 59°02' E 010°43'815.4
2018-Feb-11 11:31N 59°00' E 010°57'815.2
2018-Feb-11 11:00N 58°56' E 011°10'0 0.3
2018-Feb-11 10:30N 58°56' E 011°10'0 0.0
2018-Feb-11 10:00N 58°56' E 011°10'611.2
2018-Feb-11 09:31N 58°59' E 011°01'816.4
2018-Feb-11 09:00N 59°01' E 010°45'816.0
2018-Feb-11 08:31N 59°00' E 010°30'714.9
2018-Feb-11 08:00N 59°02' E 010°16'611.4
2018-Feb-11 07:30N 59°07' E 010°14'0 0.3
2018-Feb-11 07:00N 59°08' E 010°14'1 1.3
2018-Feb-11 06:30N 59°07' E 010°14'1 1.6
2018-Feb-11 06:01N 59°06' E 010°14'0 0.0
2018-Feb-11 05:28N 59°06' E 010°14'0 0.0
2018-Feb-11 04:58N 59°06' E 010°14'0 0.0
2018-Feb-11 04:29N 59°06' E 010°14'0 0.0
2018-Feb-11 03:59N 59°06' E 010°14'0 0.0
2018-Feb-11 03:29N 59°06' E 010°14'0 0.0
2018-Feb-11 03:00N 59°06' E 010°14'0 0.0
2018-Feb-11 02:30N 59°06' E 010°14'0 0.0
2018-Feb-11 02:00N 59°06' E 010°14'0 0.0
2018-Feb-11 01:28N 59°06' E 010°14'0 0.0
2018-Feb-11 00:58N 59°06' E 010°14'0 0.0
2018-Feb-11 00:28N 59°06' E 010°14'0 0.0
2018-Feb-10 23:59N 59°06' E 010°14'0 0.0
2018-Feb-10 23:29N 59°06' E 010°14'0 0.0
2018-Feb-10 22:59N 59°06' E 010°14'0 0.0
2018-Feb-10 22:30N 59°06' E 010°14'0 0.0
2018-Feb-10 22:00N 59°06' E 010°14'0 0.0
2018-Feb-10 21:30N 59°06' E 010°14'0 0.0
2018-Feb-10 21:00N 59°06' E 010°14'0 0.3
2018-Feb-10 20:31N 59°06' E 010°14'1 2.5
2018-Feb-10 20:00N 59°08' E 010°14'4 7.4
2018-Feb-10 19:31N 59°04' E 010°15'713.4
2018-Feb-10 19:00N 59°01' E 010°26'714.4
2018-Feb-10 18:31N 59°01' E 010°40'815.7
2018-Feb-10 18:01N 59°00' E 010°55'815.7
2018-Feb-10 17:31N 58°56' E 011°08'1 2.3
2018-Feb-10 17:01N 58°56' E 011°10'3 5.3
2018-Feb-10 16:30N 58°56' E 011°05'815.9
2018-Feb-10 16:00N 59°01' E 010°53'815.6
2018-Feb-10 15:30N 59°01' E 010°37'815.2
2018-Feb-10 15:01N 59°01' E 010°23'713.3
2018-Feb-10 14:31N 59°06' E 010°14'2 3.4
2018-Feb-10 13:59N 59°08' E 010°14'0 0.0
2018-Feb-10 13:30N 59°08' E 010°14'3 7.0
2018-Feb-10 13:00N 59°04' E 010°15'713.9
2018-Feb-10 12:31N 59°01' E 010°27'815.6
2018-Feb-10 12:00N 59°02' E 010°42'815.1
2018-Feb-10 11:31N 59°00' E 010°56'815.8
2018-Feb-10 11:01N 58°56' E 011°09'1 1.3
2018-Feb-10 10:31N 58°56' E 011°10'0 0.0
2018-Feb-10 10:01N 58°56' E 011°10'4 8.9
2018-Feb-10 09:31N 58°58' E 011°02'815.8
2018-Feb-10 09:00N 59°01' E 010°49'816.4
2018-Feb-10 08:30N 59°01' E 010°33'815.9
2018-Feb-10 08:00N 59°01' E 010°17'612.6
2018-Feb-10 07:30N 59°07' E 010°14'0 0.5
2018-Feb-10 07:00N 59°08' E 010°14'0 0.3
2018-Feb-10 06:30N 59°07' E 010°14'1 2.2
2018-Feb-10 05:55N 59°06' E 010°14'0 0.0
2018-Feb-10 05:29N 59°06' E 010°14'0 0.0
2018-Feb-10 04:59N 59°06' E 010°14'0 0.0
2018-Feb-10 04:29N 59°06' E 010°14'0 0.0
2018-Feb-10 04:00N 59°06' E 010°14'0 0.0
2018-Feb-10 03:24N 59°06' E 010°14'0 0.0
2018-Feb-10 03:00N 59°06' E 010°14'0 0.0
2018-Feb-10 02:28N 59°06' E 010°14'0 0.0
2018-Feb-10 01:58N 59°06' E 010°14'0 0.0
2018-Feb-10 01:28N 59°06' E 010°14'0 0.0
2018-Feb-10 00:59N 59°06' E 010°14'0 0.0
2018-Feb-10 00:29N 59°06' E 010°14'0 0.0
2018-Feb-09 23:59N 59°06' E 010°14'0 0.0
2018-Feb-09 23:30N 59°06' E 010°14'0 0.0
2018-Feb-09 23:00N 59°06' E 010°14'0 0.0
2018-Feb-09 22:45N 59°06' E 010°14'0 0.0
2018-Feb-09 21:01N 59°06' E 010°14'1 1.3
2018-Feb-09 20:00N 59°07' E 010°14'613.0
2018-Feb-09 19:31N 59°01' E 010°17'714.2
2018-Feb-09 19:01N 58°59' E 010°30'611.3
2018-Feb-09 18:31N 59°01' E 010°41'815.1
2018-Feb-09 18:01N 59°01' E 010°55'816.2
2018-Feb-09 17:31N 58°56' E 011°08'1 2.2
2018-Feb-09 17:00N 58°56' E 011°10'3 6.0
2018-Feb-09 16:31N 58°57' E 011°04'1514.7
2018-Feb-09 15:30N 59°01' E 010°37'816.0
2018-Feb-09 15:01N 59°01' E 010°22'8 7.9
2018-Feb-09 14:00N 59°08' E 010°14'0 0.1
2018-Feb-09 13:30N 59°08' E 010°14'2311.5
2018-Feb-09 11:31N 59°00' E 010°56'8 5.6
2018-Feb-09 10:01N 58°56' E 011°10'  
Track history (hours):
 
Tides and Currents Weather Stations Pressure Air Temp Water Temp Dewpoint Dewpoint Depression Visibility Wind Speed Wind Dir Waves Ship Positions

DucheSS Of Scandinavia

Operator: DFDS A/S

Last reported at 2018-Feb-19 10:01 UTC. Time now 2018-Feb-19 10:15 UTC.
Position N 58°56' E 011°10'.

Length 134 m; draft 5.4 m.

Type: Passenger vessel. MMSI: 219002929.

Date/timePositionNaut miles runAvg speedWind from/ knotsBaromVisibWave heightAir tempDewpointWater temp
2018-Feb-19 10:01N 58°56' E 011°10'510.0
2018-Feb-19 09:30N 58°58' E 011°02'815.8
2018-Feb-19 09:00N 59°02' E 010°48'815.4
2018-Feb-19 08:30N 59°01' E 010°33'816.0
2018-Feb-19 08:01N 59°01' E 010°17'612.4
2018-Feb-19 07:30N 59°07' E 010°14'0 0.3
2018-Feb-19 07:00N 59°08' E 010°14'1 2.2
2018-Feb-19 06:30N 59°06' E 010°14'0 0.7
2018-Feb-19 06:00N 59°06' E 010°14'0 0.0
2018-Feb-19 05:29N 59°06' E 010°14'0 0.0
2018-Feb-19 04:59N 59°06' E 010°14'0 0.0
2018-Feb-19 04:29N 59°06' E 010°14'0 0.0
2018-Feb-19 04:00N 59°06' E 010°14'0 0.0
2018-Feb-19 03:30N 59°06' E 010°14'0 0.0
2018-Feb-19 03:00N 59°06' E 010°14'0 0.0
2018-Feb-19 02:28N 59°06' E 010°14'0 0.0
2018-Feb-19 01:58N 59°06' E 010°14'0 0.0
2018-Feb-19 01:28N 59°06' E 010°14'0 0.0
2018-Feb-19 00:59N 59°06' E 010°14'0 0.0
2018-Feb-19 00:29N 59°06' E 010°14'0 0.0
2018-Feb-18 23:59N 59°06' E 010°14'0 0.0
2018-Feb-18 23:30N 59°06' E 010°14'0 0.0
2018-Feb-18 23:00N 59°06' E 010°14'0 0.0
2018-Feb-18 22:30N 59°06' E 010°14'0 0.0
2018-Feb-18 21:58N 59°06' E 010°14'0 0.0
2018-Feb-18 21:28N 59°06' E 010°14'0 0.0
2018-Feb-18 20:58N 59°06' E 010°14'0 0.0
2018-Feb-18 20:31N 59°06' E 010°14'1 2.8
2018-Feb-18 20:00N 59°08' E 010°14'4 7.1
2018-Feb-18 19:30N 59°04' E 010°15'714.0
2018-Feb-18 19:00N 59°01' E 010°27'815.8
2018-Feb-18 18:31N 59°01' E 010°42'815.6
2018-Feb-18 18:01N 59°00' E 010°57'714.9
2018-Feb-18 17:31N 58°56' E 011°09'1 1.5
2018-Feb-18 17:00N 58°56' E 011°10'3 6.4
2018-Feb-18 16:31N 58°57' E 011°04'714.0
2018-Feb-18 16:01N 59°01' E 010°53'714.3
2018-Feb-18 15:31N 59°01' E 010°39'816.2
2018-Feb-18 15:01N 59°01' E 010°23'713.2
2018-Feb-18 14:30N 59°05' E 010°14'2 4.3
2018-Feb-18 14:00N 59°08' E 010°14'0 0.0
2018-Feb-18 13:31N 59°08' E 010°14'4 7.3
2018-Feb-18 13:00N 59°04' E 010°15'713.9
2018-Feb-18 12:31N 59°01' E 010°27'815.1
2018-Feb-18 12:01N 59°01' E 010°41'715.0
2018-Feb-18 11:31N 59°00' E 010°56'815.7
2018-Feb-18 11:01N 58°56' E 011°08'1 2.0
2018-Feb-18 10:31N 58°56' E 011°10'0 0.0
2018-Feb-18 10:01N 58°56' E 011°10'5 9.2
2018-Feb-18 09:31N 58°58' E 011°02'815.1
2018-Feb-18 09:01N 59°01' E 010°49'815.5
2018-Feb-18 08:31N 59°01' E 010°34'816.6
2018-Feb-18 08:01N 59°01' E 010°18'612.4
2018-Feb-18 07:30N 59°07' E 010°14'0 0.8
2018-Feb-18 07:01N 59°08' E 010°14'0 1.0
2018-Feb-18 06:30N 59°07' E 010°14'1 1.9
2018-Feb-18 06:00N 59°06' E 010°14'0 0.0
2018-Feb-18 05:30N 59°06' E 010°14'0 0.0
2018-Feb-18 04:58N 59°06' E 010°14'0 0.0
2018-Feb-18 04:28N 59°06' E 010°14'0 0.0
2018-Feb-18 03:58N 59°06' E 010°14'0 0.0
2018-Feb-18 03:23N 59°06' E 010°14'0 0.0
2018-Feb-18 02:59N 59°06' E 010°14'0 0.0
2018-Feb-18 02:29N 59°06' E 010°14'0 0.0
2018-Feb-18 02:00N 59°06' E 010°14'0 0.0
2018-Feb-18 01:30N 59°06' E 010°14'0 0.0
2018-Feb-18 01:00N 59°06' E 010°14'0 0.0
2018-Feb-18 00:30N 59°06' E 010°14'0 0.0
2018-Feb-18 00:01N 59°06' E 010°14'0 0.0
2018-Feb-17 23:31N 59°06' E 010°14'0 0.0
2018-Feb-17 23:01N 59°06' E 010°14'0 0.0
2018-Feb-17 22:31N 59°06' E 010°14'0 0.0
2018-Feb-17 22:00N 59°06' E 010°14'0 0.0
2018-Feb-17 21:30N 59°06' E 010°14'0 0.0
2018-Feb-17 21:01N 59°06' E 010°14'1 2.6
2018-Feb-17 20:30N 59°07' E 010°14'0 0.2
2018-Feb-17 20:01N 59°08' E 010°14'3 6.3
2018-Feb-17 19:31N 59°04' E 010°15'713.5
2018-Feb-17 19:01N 59°01' E 010°26'816.2
2018-Feb-17 18:31N 59°01' E 010°42'815.5
2018-Feb-17 18:01N 59°00' E 010°57'815.2
2018-Feb-17 17:31N 58°56' E 011°08'1 1.8
2018-Feb-17 17:00N 58°56' E 011°10'3 6.2
2018-Feb-17 16:31N 58°57' E 011°04'714.5
2018-Feb-17 16:01N 59°01' E 010°53'815.3
2018-Feb-17 15:31N 59°01' E 010°38'815.5
2018-Feb-17 15:01N 59°01' E 010°23'713.5
2018-Feb-17 14:30N 59°06' E 010°14'2 3.3
2018-Feb-17 14:00N 59°08' E 010°14'0 0.0
2018-Feb-17 13:30N 59°08' E 010°14'4 7.4
2018-Feb-17 13:01N 59°04' E 010°15'713.5
2018-Feb-17 12:31N 59°01' E 010°26'815.5
2018-Feb-17 12:01N 59°01' E 010°41'714.9
2018-Feb-17 11:31N 59°00' E 010°56'815.7
2018-Feb-17 11:01N 58°56' E 011°08'1 1.9
2018-Feb-17 10:31N 58°56' E 011°10'0 0.0
2018-Feb-17 10:01N 58°56' E 011°10'612.4
2018-Feb-17 09:31N 58°59' E 010°60'816.6
2018-Feb-17 09:00N 59°02' E 010°44'817.0
2018-Feb-17 08:31N 59°01' E 010°28'714.9
2018-Feb-17 08:01N 59°04' E 010°15'4 7.8
2018-Feb-17 07:30N 59°08' E 010°14'0 0.0
2018-Feb-17 07:00N 59°08' E 010°14'1 1.6
2018-Feb-17 06:30N 59°07' E 010°14'1 1.3
2018-Feb-17 06:00N 59°06' E 010°14'0 0.0
2018-Feb-17 05:28N 59°06' E 010°14'0 0.0
2018-Feb-17 04:58N 59°06' E 010°14'0 0.0
2018-Feb-17 04:28N 59°06' E 010°14'0 0.0
2018-Feb-17 03:59N 59°06' E 010°14'0 0.0
2018-Feb-17 03:29N 59°06' E 010°14'0 0.0
2018-Feb-17 02:59N 59°06' E 010°14'0 0.0
2018-Feb-17 02:30N 59°06' E 010°14'0 0.0
2018-Feb-17 02:00N 59°06' E 010°14'0 0.0
2018-Feb-17 01:30N 59°06' E 010°14'0 0.0
2018-Feb-17 00:58N 59°06' E 010°14'0 0.0
2018-Feb-17 00:28N 59°06' E 010°14'0 0.0
2018-Feb-16 23:58N 59°06' E 010°14'0 0.0
2018-Feb-16 23:29N 59°06' E 010°14'0 0.0
2018-Feb-16 22:59N 59°06' E 010°14'0 0.0
2018-Feb-16 22:29N 59°06' E 010°14'0 0.0
2018-Feb-16 22:00N 59°06' E 010°14'0 0.0
2018-Feb-16 21:30N 59°06' E 010°14'0 0.0
2018-Feb-16 21:00N 59°06' E 010°14'1 1.6
2018-Feb-16 20:30N 59°07' E 010°14'1 1.3
2018-Feb-16 20:01N 59°08' E 010°14'3 6.3
2018-Feb-16 19:30N 59°04' E 010°15'612.9
2018-Feb-16 19:01N 59°01' E 010°25'815.7
2018-Feb-16 18:31N 59°01' E 010°40'815.8
2018-Feb-16 18:01N 59°00' E 010°56'815.6
2018-Feb-16 17:31N 58°56' E 011°08'1 2.2
2018-Feb-16 17:00N 58°56' E 011°10'3 5.6
2018-Feb-16 16:31N 58°56' E 011°05'714.8
2018-Feb-16 16:01N 59°01' E 010°53'815.1
2018-Feb-16 15:31N 59°01' E 010°38'815.7
2018-Feb-16 15:01N 59°01' E 010°23'713.4
2018-Feb-16 14:30N 59°06' E 010°14'2 4.1
2018-Feb-16 14:01N 59°08' E 010°14'0 0.0
2018-Feb-16 13:30N 59°08' E 010°14'4 7.9
2018-Feb-16 13:01N 59°04' E 010°15'714.1
2018-Feb-16 12:31N 59°01' E 010°27'815.8
2018-Feb-16 12:01N 59°01' E 010°43'815.8
2018-Feb-16 11:31N 58°60' E 010°58'714.4
2018-Feb-16 11:01N 58°56' E 011°09'0 0.8
2018-Feb-16 10:31N 58°56' E 011°10'0 0.0
2018-Feb-16 10:00N 58°56' E 011°10'5 9.9
2018-Feb-16 09:31N 58°58' E 011°02'815.4
2018-Feb-16 09:00N 59°02' E 010°48'815.9
2018-Feb-16 08:30N 59°01' E 010°33'815.8
2018-Feb-16 08:00N 59°01' E 010°18'612.5
2018-Feb-16 07:30N 59°07' E 010°14'0 0.5
2018-Feb-16 07:01N 59°08' E 010°14'1 2.3
2018-Feb-16 06:31N 59°06' E 010°14'0 0.6
2018-Feb-16 06:00N 59°06' E 010°14'0 0.0
2018-Feb-16 05:30N 59°06' E 010°14'0 0.0
2018-Feb-16 05:01N 59°06' E 010°14'0 0.0
2018-Feb-16 04:30N 59°06' E 010°14'0 0.0
2018-Feb-16 04:00N 59°06' E 010°14'0 0.0
2018-Feb-16 03:31N 59°06' E 010°14'0 0.0
2018-Feb-16 03:01N 59°06' E 010°14'0 0.0
2018-Feb-16 02:30N 59°06' E 010°14'0 0.0
2018-Feb-16 02:00N 59°06' E 010°14'0 0.0
2018-Feb-16 01:30N 59°06' E 010°14'0 0.0
2018-Feb-16 01:00N 59°06' E 010°14'0 0.0
2018-Feb-16 00:31N 59°06' E 010°14'0 0.0
2018-Feb-16 00:00N 59°06' E 010°14'0 0.0
2018-Feb-15 23:30N 59°06' E 010°14'0 0.0
2018-Feb-15 23:00N 59°06' E 010°14'0 0.0
2018-Feb-15 22:30N 59°06' E 010°14'0 0.0
2018-Feb-15 22:00N 59°06' E 010°14'0 0.0
2018-Feb-15 21:28N 59°06' E 010°14'0 0.0
2018-Feb-15 21:00N 59°06' E 010°14'1 2.8
2018-Feb-15 20:30N 59°08' E 010°14'0 0.2
2018-Feb-15 20:00N 59°07' E 010°14'611.3
2018-Feb-15 19:31N 59°02' E 010°16'715.0
2018-Feb-15 19:01N 58°59' E 010°29'612.0
2018-Feb-15 18:31N 59°01' E 010°41'815.3
2018-Feb-15 18:01N 59°01' E 010°56'815.8
2018-Feb-15 17:31N 58°56' E 011°08'1 2.4
2018-Feb-15 17:01N 58°56' E 011°10'4 8.6
2018-Feb-15 16:30N 58°58' E 011°02'815.8
2018-Feb-15 16:01N 59°01' E 010°49'815.4
2018-Feb-15 15:30N 58°59' E 010°35'714.6
2018-Feb-15 15:01N 59°00' E 010°20'713.4
2018-Feb-15 14:30N 59°06' E 010°14'1 3.0
2018-Feb-15 14:01N 59°08' E 010°14'0 0.0
2018-Feb-15 13:30N 59°08' E 010°14'510.0
2018-Feb-15 13:01N 59°03' E 010°15'714.4
2018-Feb-15 12:31N 58°59' E 010°28'713.8
2018-Feb-15 12:01N 59°01' E 010°41'815.2
2018-Feb-15 11:31N 59°01' E 010°55'816.3
2018-Feb-15 11:01N 58°56' E 011°08'1 1.9
2018-Feb-15 10:31N 58°56' E 011°10'0 0.1
2018-Feb-15 10:01N 58°56' E 011°10'713.1
2018-Feb-15 09:30N 58°59' E 010°59'815.5
2018-Feb-15 09:01N 59°01' E 010°45'816.2
2018-Feb-15 08:31N 58°59' E 010°30'714.3
2018-Feb-15 08:00N 59°02' E 010°17'611.9
2018-Feb-15 07:30N 59°07' E 010°14'0 0.2
2018-Feb-15 07:00N 59°08' E 010°14'1 2.1
2018-Feb-15 06:30N 59°07' E 010°14'0 0.8
2018-Feb-15 06:00N 59°06' E 010°14'0 0.0
2018-Feb-15 05:30N 59°06' E 010°14'0 0.0
2018-Feb-15 04:58N 59°06' E 010°14'0 0.0
2018-Feb-15 04:28N 59°06' E 010°14'0 0.0
2018-Feb-15 03:58N 59°06' E 010°14'0 0.0
2018-Feb-15 03:29N 59°06' E 010°14'0 0.0
2018-Feb-15 02:59N 59°06' E 010°14'0 0.0
2018-Feb-15 02:29N 59°06' E 010°14'0 0.0
2018-Feb-15 02:00N 59°06' E 010°14'0 0.0
2018-Feb-15 01:30N 59°06' E 010°14'0 0.0
2018-Feb-15 00:57N 59°06' E 010°14'0 0.0
2018-Feb-15 00:28N 59°06' E 010°14'0 0.0
2018-Feb-14 23:58N 59°06' E 010°14'0 0.0
2018-Feb-14 23:28N 59°06' E 010°14'0 0.0
2018-Feb-14 22:59N 59°06' E 010°14'0 0.0
2018-Feb-14 22:29N 59°06' E 010°14'0 0.0
2018-Feb-14 21:59N 59°06' E 010°14'0 0.0
2018-Feb-14 21:30N 59°06' E 010°14'0 0.0
2018-Feb-14 21:00N 59°06' E 010°14'0 0.7
2018-Feb-14 20:30N 59°07' E 010°14'1 2.1
2018-Feb-14 20:00N 59°08' E 010°14'4 8.5
2018-Feb-14 19:30N 59°03' E 010°15'713.5
2018-Feb-14 19:00N 59°01' E 010°27'815.0
2018-Feb-14 18:30N 59°01' E 010°41'815.6
2018-Feb-14 18:00N 59°00' E 010°56'815.1
2018-Feb-14 17:31N 58°56' E 011°08'1 2.1
2018-Feb-14 17:00N 58°56' E 011°10'3 6.5
2018-Feb-14 16:30N 58°57' E 011°04'815.4
2018-Feb-14 16:00N 59°01' E 010°52'815.3
2018-Feb-14 15:30N 59°00' E 010°37'815.6
2018-Feb-14 15:01N 59°01' E 010°22'713.8
2018-Feb-14 14:30N 59°06' E 010°14'1 2.5
2018-Feb-14 14:00N 59°08' E 010°14'0 0.0
2018-Feb-14 13:30N 59°08' E 010°14'4 8.0
2018-Feb-14 13:01N 59°04' E 010°15'713.7
2018-Feb-14 12:31N 59°01' E 010°27'714.8
2018-Feb-14 12:01N 59°01' E 010°41'714.4
2018-Feb-14 11:31N 59°00' E 010°55'815.9
2018-Feb-14 11:01N 58°56' E 011°08'1 2.1
2018-Feb-14 10:31N 58°56' E 011°10'0 0.0
2018-Feb-14 10:01N 58°56' E 011°10'510.5
2018-Feb-14 09:30N 58°59' E 011°01'714.8
2018-Feb-14 09:00N 59°02' E 010°48'815.7
2018-Feb-14 08:30N 59°01' E 010°33'816.4
2018-Feb-14 08:01N 59°01' E 010°17'612.3
2018-Feb-14 07:30N 59°07' E 010°14'0 0.4
2018-Feb-14 07:00N 59°08' E 010°14'1 2.5
2018-Feb-14 06:30N 59°06' E 010°14'0 0.3
2018-Feb-14 05:59N 59°06' E 010°14'0 0.0
2018-Feb-14 05:27N 59°06' E 010°14'0 0.0
2018-Feb-14 05:00N 59°06' E 010°14'0 0.0
2018-Feb-14 04:30N 59°06' E 010°14'0 0.0
2018-Feb-14 03:58N 59°06' E 010°14'0 0.0
2018-Feb-14 03:28N 59°06' E 010°14'0 0.0
2018-Feb-14 02:58N 59°06' E 010°14'0 0.0
2018-Feb-14 02:29N 59°06' E 010°14'0 0.0
2018-Feb-14 01:59N 59°06' E 010°14'0 0.0
2018-Feb-14 01:29N 59°06' E 010°14'0 0.0
2018-Feb-14 01:00N 59°06' E 010°14'0 0.0
2018-Feb-14 00:30N 59°06' E 010°14'0 0.0
2018-Feb-14 00:00N 59°06' E 010°14'0 0.0
2018-Feb-13 23:28N 59°06' E 010°14'0 0.0
2018-Feb-13 22:58N 59°06' E 010°14'0 0.0
2018-Feb-13 22:28N 59°06' E 010°14'0 0.0
2018-Feb-13 21:59N 59°06' E 010°14'0 0.0
2018-Feb-13 21:29N 59°06' E 010°14'0 0.0
2018-Feb-13 20:59N 59°06' E 010°14'1 1.1
2018-Feb-13 20:30N 59°07' E 010°14'1 1.8
2018-Feb-13 20:00N 59°08' E 010°14'3 6.7
2018-Feb-13 19:31N 59°04' E 010°15'713.5
2018-Feb-13 19:01N 59°01' E 010°26'815.6
2018-Feb-13 18:31N 59°01' E 010°41'815.9
2018-Feb-13 18:01N 59°00' E 010°57'815.6
2018-Feb-13 17:30N 58°56' E 011°09'1 1.3
2018-Feb-13 17:01N 58°56' E 011°10'3 5.4
2018-Feb-13 16:31N 58°56' E 011°05'714.6
2018-Feb-13 16:01N 59°01' E 010°54'815.4
2018-Feb-13 15:31N 59°02' E 010°39'816.3
2018-Feb-13 15:00N 59°01' E 010°23'713.4
2018-Feb-13 14:31N 59°06' E 010°14'2 3.7
2018-Feb-13 14:01N 59°08' E 010°14'0 0.0
2018-Feb-13 13:31N 59°08' E 010°14'4 7.9
2018-Feb-13 13:00N 59°04' E 010°15'713.6
2018-Feb-13 12:31N 59°01' E 010°27'815.3
2018-Feb-13 12:01N 59°01' E 010°42'714.8
2018-Feb-13 11:31N 59°00' E 010°56'815.6
2018-Feb-13 11:01N 58°56' E 011°08'1 1.9
2018-Feb-13 10:31N 58°56' E 011°10'0 0.0
2018-Feb-13 10:00N 58°56' E 011°10'510.2
2018-Feb-13 09:30N 58°58' E 011°02'815.7
2018-Feb-13 09:00N 59°02' E 010°48'816.2
2018-Feb-13 08:30N 59°01' E 010°32'815.9
2018-Feb-13 08:00N 59°01' E 010°17'612.4
2018-Feb-13 07:31N 59°07' E 010°14'0 0.4
2018-Feb-13 07:01N 59°08' E 010°14'1 1.8
2018-Feb-13 06:31N 59°07' E 010°14'1 1.0
2018-Feb-13 06:00N 59°06' E 010°14'0 0.0
2018-Feb-13 05:30N 59°06' E 010°14'0 0.0
2018-Feb-13 05:00N 59°06' E 010°14'0 0.0
2018-Feb-13 04:28N 59°06' E 010°14'0 0.0
2018-Feb-13 03:58N 59°06' E 010°14'0 0.0
2018-Feb-13 03:28N 59°06' E 010°14'0 0.0
2018-Feb-13 02:59N 59°06' E 010°14'0 0.0
2018-Feb-13 02:29N 59°06' E 010°14'0 0.0
2018-Feb-13 01:59N 59°06' E 010°14'0 0.0
2018-Feb-13 01:30N 59°06' E 010°14'0 0.0
2018-Feb-13 01:00N 59°06' E 010°14'0 0.0
2018-Feb-13 00:30N 59°06' E 010°14'0 0.0
2018-Feb-12 23:58N 59°06' E 010°14'0 0.0
2018-Feb-12 23:28N 59°06' E 010°14'0 0.0
2018-Feb-12 22:58N 59°06' E 010°14'0 0.0
2018-Feb-12 22:29N 59°06' E 010°14'0 0.0
2018-Feb-12 21:59N 59°06' E 010°14'0 0.0
2018-Feb-12 21:29N 59°06' E 010°14'0 0.0
2018-Feb-12 21:00N 59°06' E 010°14'0 0.0
2018-Feb-12 20:31N 59°06' E 010°14'1 2.9
2018-Feb-12 20:00N 59°08' E 010°14'3 6.8
2018-Feb-12 19:30N 59°04' E 010°15'713.6
2018-Feb-12 19:01N 59°01' E 010°26'816.3
2018-Feb-12 18:31N 59°01' E 010°42'815.9
2018-Feb-12 18:01N 58°60' E 010°57'714.7
2018-Feb-12 17:31N 58°56' E 011°09'1 1.4
2018-Feb-12 17:00N 58°56' E 011°10'2 4.9
2018-Feb-12 16:30N 58°56' E 011°05'815.3
2018-Feb-12 16:00N 59°01' E 010°53'815.8
2018-Feb-12 15:31N 59°01' E 010°38'816.1
2018-Feb-12 15:01N 59°01' E 010°22'713.7
2018-Feb-12 14:31N 59°06' E 010°14'2 3.0
2018-Feb-12 14:00N 59°08' E 010°14'0 0.0
2018-Feb-12 13:30N 59°08' E 010°14'4 7.7
2018-Feb-12 13:01N 59°04' E 010°15'714.3
2018-Feb-12 12:30N 59°01' E 010°28'816.3
2018-Feb-12 12:01N 59°01' E 010°43'816.0
2018-Feb-12 11:30N 58°60' E 010°59'714.1
2018-Feb-12 11:00N 58°56' E 011°10'0 0.1
2018-Feb-12 10:31N 58°56' E 011°10'0 0.0
2018-Feb-12 10:01N 58°56' E 011°10'510.6
2018-Feb-12 09:31N 58°59' E 011°01'816.6
2018-Feb-12 09:01N 59°02' E 010°46'816.5
2018-Feb-12 08:31N 59°01' E 010°30'815.7
2018-Feb-12 08:01N 59°02' E 010°16'610.8
2018-Feb-12 07:30N 59°08' E 010°14'0 0.0
2018-Feb-12 07:01N 59°08' E 010°14'1 2.3
2018-Feb-12 06:30N 59°06' E 010°14'0 0.5
2018-Feb-12 06:00N 59°06' E 010°14'0 0.0
2018-Feb-12 05:30N 59°06' E 010°14'0 0.0
2018-Feb-12 04:58N 59°06' E 010°14'0 0.0
2018-Feb-12 04:28N 59°06' E 010°14'0 0.0
2018-Feb-12 03:58N 59°06' E 010°14'0 0.0
2018-Feb-12 03:29N 59°06' E 010°14'0 0.0
2018-Feb-12 02:59N 59°06' E 010°14'0 0.0
2018-Feb-12 02:29N 59°06' E 010°14'0 0.0
2018-Feb-12 02:00N 59°06' E 010°14'0 0.0
2018-Feb-12 01:30N 59°06' E 010°14'0 0.0
2018-Feb-12 01:00N 59°06' E 010°14'0 0.0
2018-Feb-12 00:28N 59°06' E 010°14'0 0.0
2018-Feb-11 23:58N 59°06' E 010°14'0 0.0
2018-Feb-11 23:28N 59°06' E 010°14'0 0.0
2018-Feb-11 22:59N 59°06' E 010°14'0 0.0
2018-Feb-11 22:30N 59°06' E 010°14'0 0.0
2018-Feb-11 22:00N 59°06' E 010°14'0 0.0
2018-Feb-11 21:31N 59°06' E 010°14'0 0.0
2018-Feb-11 21:00N 59°06' E 010°14'0 0.1
2018-Feb-11 20:30N 59°06' E 010°14'1 2.8
2018-Feb-11 20:00N 59°08' E 010°14'3 6.5
2018-Feb-11 19:30N 59°04' E 010°15'612.7
2018-Feb-11 19:00N 59°01' E 010°25'815.3
2018-Feb-11 18:30N 59°01' E 010°40'815.9
2018-Feb-11 18:00N 59°00' E 010°55'816.5
2018-Feb-11 17:31N 58°56' E 011°08'1 1.9
2018-Feb-11 17:00N 58°56' E 011°10'3 5.5
2018-Feb-11 16:30N 58°56' E 011°05'815.5
2018-Feb-11 16:00N 59°01' E 010°53'816.3
2018-Feb-11 15:30N 59°02' E 010°37'816.0
2018-Feb-11 15:00N 59°01' E 010°22'713.1
2018-Feb-11 14:30N 59°06' E 010°14'1 2.9
2018-Feb-11 14:01N 59°08' E 010°14'0 0.0
2018-Feb-11 13:30N 59°08' E 010°14'4 8.3
2018-Feb-11 13:01N 59°04' E 010°15'714.8
2018-Feb-11 12:30N 59°01' E 010°28'715.1
2018-Feb-11 12:00N 59°02' E 010°43'815.4
2018-Feb-11 11:31N 59°00' E 010°57'815.2
2018-Feb-11 11:00N 58°56' E 011°10'0 0.3
2018-Feb-11 10:30N 58°56' E 011°10'0 0.0
2018-Feb-11 10:00N 58°56' E 011°10'611.2
2018-Feb-11 09:31N 58°59' E 011°01'816.4
2018-Feb-11 09:00N 59°01' E 010°45'816.0
2018-Feb-11 08:31N 59°00' E 010°30'714.9
2018-Feb-11 08:00N 59°02' E 010°16'611.4
2018-Feb-11 07:30N 59°07' E 010°14'0 0.3
2018-Feb-11 07:00N 59°08' E 010°14'1 1.3
2018-Feb-11 06:30N 59°07' E 010°14'1 1.6
2018-Feb-11 06:01N 59°06' E 010°14'0 0.0
2018-Feb-11 05:28N 59°06' E 010°14'0 0.0
2018-Feb-11 04:58N 59°06' E 010°14'0 0.0
2018-Feb-11 04:29N 59°06' E 010°14'0 0.0
2018-Feb-11 03:59N 59°06' E 010°14'0 0.0
2018-Feb-11 03:29N 59°06' E 010°14'0 0.0
2018-Feb-11 03:00N 59°06' E 010°14'0 0.0
2018-Feb-11 02:30N 59°06' E 010°14'0 0.0
2018-Feb-11 02:00N 59°06' E 010°14'0 0.0
2018-Feb-11 01:28N 59°06' E 010°14'0 0.0
2018-Feb-11 00:58N 59°06' E 010°14'0 0.0
2018-Feb-11 00:28N 59°06' E 010°14'0 0.0
2018-Feb-10 23:59N 59°06' E 010°14'0 0.0
2018-Feb-10 23:29N 59°06' E 010°14'0 0.0
2018-Feb-10 22:59N 59°06' E 010°14'0 0.0
2018-Feb-10 22:30N 59°06' E 010°14'0 0.0
2018-Feb-10 22:00N 59°06' E 010°14'0 0.0
2018-Feb-10 21:30N 59°06' E 010°14'0 0.0
2018-Feb-10 21:00N 59°06' E 010°14'0 0.3
2018-Feb-10 20:31N 59°06' E 010°14'1 2.5
2018-Feb-10 20:00N 59°08' E 010°14'4 7.4
2018-Feb-10 19:31N 59°04' E 010°15'713.4
2018-Feb-10 19:00N 59°01' E 010°26'714.4
2018-Feb-10 18:31N 59°01' E 010°40'815.7
2018-Feb-10 18:01N 59°00' E 010°55'815.7
2018-Feb-10 17:31N 58°56' E 011°08'1 2.3
2018-Feb-10 17:01N 58°56' E 011°10'3 5.3
2018-Feb-10 16:30N 58°56' E 011°05'815.9
2018-Feb-10 16:00N 59°01' E 010°53'815.6
2018-Feb-10 15:30N 59°01' E 010°37'815.2
2018-Feb-10 15:01N 59°01' E 010°23'713.3
2018-Feb-10 14:31N 59°06' E 010°14'2 3.4
2018-Feb-10 13:59N 59°08' E 010°14'0 0.0
2018-Feb-10 13:30N 59°08' E 010°14'3 7.0
2018-Feb-10 13:00N 59°04' E 010°15'713.9
2018-Feb-10 12:31N 59°01' E 010°27'815.6
2018-Feb-10 12:00N 59°02' E 010°42'815.1
2018-Feb-10 11:31N 59°00' E 010°56'815.8
2018-Feb-10 11:01N 58°56' E 011°09'1 1.3
2018-Feb-10 10:31N 58°56' E 011°10'0 0.0
2018-Feb-10 10:01N 58°56' E 011°10'4 8.9
2018-Feb-10 09:31N 58°58' E 011°02'815.8
2018-Feb-10 09:00N 59°01' E 010°49'816.4
2018-Feb-10 08:30N 59°01' E 010°33'815.9
2018-Feb-10 08:00N 59°01' E 010°17'612.6
2018-Feb-10 07:30N 59°07' E 010°14'0 0.5
2018-Feb-10 07:00N 59°08' E 010°14'0 0.3
2018-Feb-10 06:30N 59°07' E 010°14'1 2.2
2018-Feb-10 05:55N 59°06' E 010°14'0 0.0
2018-Feb-10 05:29N 59°06' E 010°14'0 0.0
2018-Feb-10 04:59N 59°06' E 010°14'0 0.0
2018-Feb-10 04:29N 59°06' E 010°14'0 0.0
2018-Feb-10 04:00N 59°06' E 010°14'0 0.0
2018-Feb-10 03:24N 59°06' E 010°14'0 0.0
2018-Feb-10 03:00N 59°06' E 010°14'0 0.0
2018-Feb-10 02:28N 59°06' E 010°14'0 0.0
2018-Feb-10 01:58N 59°06' E 010°14'0 0.0
2018-Feb-10 01:28N 59°06' E 010°14'0 0.0
2018-Feb-10 00:59N 59°06' E 010°14'0 0.0
2018-Feb-10 00:29N 59°06' E 010°14'0 0.0
2018-Feb-09 23:59N 59°06' E 010°14'0 0.0
2018-Feb-09 23:30N 59°06' E 010°14'0 0.0
2018-Feb-09 23:00N 59°06' E 010°14'0 0.0
2018-Feb-09 22:45N 59°06' E 010°14'0 0.0
2018-Feb-09 21:01N 59°06' E 010°14'1 1.3
2018-Feb-09 20:00N 59°07' E 010°14'613.0
2018-Feb-09 19:31N 59°01' E 010°17'714.2
2018-Feb-09 19:01N 58°59' E 010°30'611.3
2018-Feb-09 18:31N 59°01' E 010°41'815.1
2018-Feb-09 18:01N 59°01' E 010°55'816.2
2018-Feb-09 17:31N 58°56' E 011°08'1 2.2
2018-Feb-09 17:00N 58°56' E 011°10'3 6.0
2018-Feb-09 16:31N 58°57' E 011°04'1514.7
2018-Feb-09 15:30N 59°01' E 010°37'816.0
2018-Feb-09 15:01N 59°01' E 010°22'8 7.9
2018-Feb-09 14:00N 59°08' E 010°14'0 0.1
2018-Feb-09 13:30N 59°08' E 010°14'2311.5
2018-Feb-09 11:31N 59°00' E 010°56'8 5.6
2018-Feb-09 10:01N 58°56' E 011°10'  

Dump ship's entire track history